Brownstown, MI

05:12 AM EDT on July 06, 2015 (GMT -0400)
Timber Creek | | Change Station
CLOSE
Current Station
Personal Weather Stations
Location: Brownstown Charter Township, MI
Elevation: 591 ft
Nearby Weather Stations

Elev 591 ft 42.13 °N, 83.29 °W | Updated 9 seconds ago

Mawingu sehemu ndogo
Mawingu sehemu ndogo
56.7 °F
Feels Like 56.7 °F
N
0.0
Upepo Ya mabadiliko Upepo from Magharibi-kaskazini-Magharibi(MgKzMg)
Gusts 0.0 mph

Leo
High -- | Low -- °F
--% Chance of Precip.
Yesterday
High -- | Low -- °F
Precip. -- nchi
6:03 AM 9:11 PM
Waning Gibbous, 77% visible
Shinikizo 30.06 nchi
Mwangaza 7.0 meli
Clouds Safi
Kilele cha umande 56 °F
Unyevu 99%
Rainfall 0.00 nchi
Snow Depth Not available.
UV 0.0 out of 12
Pollen 1.40 out of 12
Air Quality Not available.
Flu Activity Not available.
METAR KONZ 060854Z AUTO 00000KT 7SM CLR 17/15 A3006 RMK AO2

More Conditions Fewer Conditions

Shinikizo 30.06 nchi
Mwangaza 7.0 meli
Clouds Safi
Kilele cha umande 56 °F
Unyevu 99%
Rainfall 0.00 nchi
Snow Depth Not available.
UV 0.0 out of 12
Pollen 1.40 out of 12
Air Quality Not available.
Flu Activity Not available.
METAR KONZ 060854Z AUTO 00000KT 7SM CLR 17/15 A3006 RMK AO2

More Conditions Fewer Conditions

10-Day Weather Forecast

×

Almanac

Astronomy

Jul. 06, 2015 Rise Set
Actual Time
Civil Twilight
Nautical Twilight
Astronomical Twilight
Moon
Length Of Visible Light
Length of Day
Tomorrow will be .
, % of the Moon is Illuminated

Today's Extremes

State Highs State Lows

Community

WunderPhotos

Upload Photos

1,835,520 photos uploaded!

WunderBlogs® & News

Nearby

Air Quality

  Air Quality AQ Index Pollutant
Not available.

Snow Depth

Station Depth Elevation

Earthquake Activity

City Distance Mag. Time & Date
Minimum magnitude displayed is 2.5.

Coastal Water Temperatures

Mahali Hali ya Hewa

Stations

Nearby Weather Stations

Station Location Temp Ubaridi wa upepo Kilele cha umande Unyevu Upepo Precip. Elev Imesharekibishwa Type